createdAt,value
2023-05-25T00:01:11.039Z,21.30
2023-05-25T00:11:15.265Z,21.60
2023-05-25T00:21:18.420Z,20.30
2023-05-25T00:31:21.996Z,17.80
2023-05-25T00:41:28.136Z,18.30
2023-05-25T00:51:36.621Z,20.70
2023-05-25T01:01:41.632Z,19.30
2023-05-25T01:11:50.083Z,20.00
2023-05-25T01:22:05.905Z,21.70
2023-05-25T01:32:10.400Z,19.40
2023-05-25T01:42:14.087Z,18.00
2023-05-25T01:52:24.072Z,18.90
2023-05-25T02:02:28.272Z,22.50
2023-05-25T02:12:32.058Z,19.30
2023-05-25T02:22:38.003Z,23.50
2023-05-25T02:32:44.082Z,25.10
2023-05-25T02:42:48.209Z,17.50
2023-05-25T02:52:52.220Z,20.60
2023-05-25T03:02:58.057Z,20.80
2023-05-25T03:13:04.060Z,20.20
2023-05-25T03:23:07.811Z,20.60
2023-05-25T03:33:13.954Z,23.00
2023-05-25T03:43:20.761Z,18.80
2023-05-25T03:53:24.657Z,25.30
2023-05-25T04:03:29.844Z,21.30
2023-05-25T04:13:36.600Z,22.80
2023-05-25T04:24:06.833Z,20.60
2023-05-25T04:34:12.014Z,23.80
2023-05-25T04:54:48.371Z,22.10
2023-05-25T05:04:54.046Z,22.40
2023-05-25T05:14:58.249Z,23.90
2023-05-25T05:25:05.155Z,22.30
2023-05-25T05:35:13.211Z,19.60
2023-05-25T05:45:23.343Z,21.30
2023-05-25T05:55:27.425Z,24.30
2023-05-25T06:05:57.014Z,18.60
2023-05-25T06:16:00.915Z,16.30
2023-05-25T06:26:06.115Z,15.50
2023-05-25T06:36:16.007Z,18.60
2023-05-25T06:46:22.208Z,19.40
2023-05-25T06:56:26.499Z,18.80
2023-05-25T07:06:30.532Z,18.50
2023-05-25T07:16:34.642Z,16.00
2023-05-25T07:26:38.249Z,16.80
2023-05-25T07:36:42.054Z,19.20
2023-05-25T07:46:45.716Z,19.20
2023-05-25T07:56:49.878Z,32.20
2023-05-25T08:17:03.615Z,24.60
2023-05-25T08:27:07.930Z,22.00
2023-05-25T08:37:11.641Z,21.90
2023-05-25T08:47:17.463Z,23.50
2023-05-25T08:57:25.993Z,28.00
2023-05-25T12:53:54.467Z,23.20
2023-05-25T13:03:57.959Z,21.60
2023-05-25T13:24:35.140Z,23.30
2023-05-25T13:34:42.259Z,28.60
2023-05-25T13:44:50.771Z,22.70
2023-05-25T13:54:56.790Z,24.90
2023-05-25T14:05:02.679Z,24.70
2023-05-25T14:15:07.548Z,25.30
2023-05-25T14:25:11.159Z,26.30
2023-05-25T14:35:15.070Z,21.20
2023-05-25T14:45:19.597Z,21.70
2023-05-25T14:55:23.905Z,28.60
2023-05-25T15:05:27.501Z,29.30
2023-05-25T15:15:31.314Z,30.20
2023-05-25T15:25:35.921Z,39.30
2023-05-25T15:35:40.089Z,30.60
2023-05-25T15:45:44.230Z,35.50
2023-05-25T15:55:51.879Z,29.70
2023-05-25T16:05:58.219Z,27.30
2023-05-25T16:16:01.459Z,28.80
2023-05-25T16:26:06.285Z,23.20
2023-05-25T16:36:36.858Z,27.10
2023-05-25T16:46:40.195Z,30.60
2023-05-25T16:56:43.978Z,31.40
2023-05-25T17:06:47.869Z,31.90
2023-05-25T17:16:55.226Z,30.90
2023-05-25T17:26:59.378Z,31.30
2023-05-25T17:37:04.265Z,28.00
2023-05-25T17:47:10.915Z,30.40
2023-05-25T17:57:14.627Z,32.30
2023-05-25T18:07:19.786Z,36.20
2023-05-25T18:17:23.294Z,32.20
2023-05-25T18:27:26.502Z,33.10
2023-05-25T18:37:34.410Z,29.30
2023-05-25T18:47:38.299Z,37.50
2023-05-25T18:57:42.068Z,30.30
2023-05-25T19:07:58.405Z,30.80
2023-05-25T19:18:05.930Z,34.60
2023-05-25T19:28:09.439Z,38.40
2023-05-25T19:38:13.832Z,40.40
2023-05-25T19:48:19.508Z,39.20
2023-05-25T19:58:23.003Z,40.10
2023-05-25T20:08:27.507Z,43.30
2023-05-25T20:18:31.055Z,45.00
2023-05-25T20:28:35.061Z,41.30
2023-05-25T20:38:39.578Z,42.90
2023-05-25T20:48:43.353Z,45.70
2023-05-25T20:58:48.289Z,46.30
2023-05-25T21:08:54.317Z,45.30
2023-05-25T21:18:57.700Z,44.20
2023-05-25T21:29:01.266Z,43.70
2023-05-25T21:39:04.536Z,49.00
2023-05-25T21:49:08.169Z,47.00
2023-05-25T21:59:11.541Z,40.50
2023-05-25T22:09:15.299Z,33.50
2023-05-25T22:19:52.110Z,44.20
2023-05-25T22:30:28.316Z,44.20
2023-05-25T22:40:32.673Z,36.10
2023-05-25T22:50:35.868Z,38.20
2023-05-25T23:00:39.718Z,43.00
2023-05-25T23:10:43.254Z,37.20
2023-05-25T23:20:47.705Z,40.60
2023-05-25T23:30:51.530Z,36.30
2023-05-25T23:40:54.652Z,36.10
2023-05-25T23:50:58.070Z,37.50
